< < Back
Terminal Aerodrome Forecast


Current Version              Previous Versions:   1  2  3  4  5  6  7  8  9  

Terminal Aerodrome Forecast

046
FTUS42 KILM 270520
TAFFLO
TAF
KFLO 270520Z 2706/2806 18006KT P6SM SKC
     FM271400 17007KT P6SM SKC
     FM271900 13007KT P6SM FEW250
     FM280200 VRB02KT P6SM SKC=

Latest METAR

952
SAUS70 KWBC 270800 RRL
MTRFLO
METAR KFLO 270753Z AUTO 00000KT 10SM FEW060 19/17 A3014 RMK AO2 SLP203
T01940167


USA.gov is the U.S. government's official web portal to all federal, state and local government web resources and services.